METAR Data
IDs: Format: Raw Decoded Include TAF

Data at: 1726 UTC 18 Jan 2019

Region: TOP
KATL 181652Z 19004KT 2 1/2SM BR BKN005 BKN010 OVC040 11/09 A3012 RMK AO2 SFC VIS 5 SLP203 T01060089

KBOS 181654Z 15004KT 10SM FEW030 BKN047 BKN200 04/M02 A3009 RMK AO2 SLP189 T00391017

KBWI 181711Z 26003KT 3SM BR BKN009 BKN017 03/01 A3010 RMK AO2 T00280006

KCLE 181651Z 27006KT 5SM BR OVC010 01/M02 A3015 RMK AO2 SLP217 T00111017

KCLT 181652Z VRB03KT 4SM BR OVC004 07/06 A3015 RMK AO2 SLP211 T00720061

KCVG 181652Z 35003KT 6SM HZ OVC009 02/M01 A3017 RMK AO2 SLP220 T00171011

KDCA 181652Z 05004KT 4SM BR OVC008 03/01 A3013 RMK AO2 SLP201 T00280006

KDEN 181653Z 24004KT 10SM FEW040 BKN060 03/M02 A2981 RMK AO2 SLP083 SHSN DSNT SW-W T00281022

KDFW 181653Z 16014KT 9SM SCT200 BKN250 13/09 A2988 RMK AO2 SLP115 T01280094

KDTW 181653Z 32008KT 8SM FEW016 OVC020 M01/M06 A3014 RMK AO2 SLP213 T10061056

KEWR 181651Z 02003KT 7SM FEW007 FEW027 OVC033 02/00 A3009 RMK AO2 SLP190 T00220000

KFLL 181653Z AUTO VRB03KT 10SM CLR 24/14 A3015 RMK AO2 SLP210 T02390144

KIAD 181652Z 00000KT 7SM OVC005 02/01 A3011 RMK AO2 SLP198 T00220006

KIAH 181713Z 16008KT 1SM BR OVC005 18/17 A3003 RMK AO2 SFC VIS 3 T01780172

KJFK 181651Z 00000KT 10SM SCT009 BKN037 OVC090 03/01 A3010 RMK AO2 SLP193 T00330011

KLAS 181656Z 07004KT 10SM FEW120 SCT250 12/06 A3020 RMK AO2 SLP222 T01170056

KLAX 181705Z 09005KT 5SM BR FEW009 SCT020 BKN140 BKN180 15/13 A3026 RMK AO2 T01500128

KLGA 181651Z 05007KT 8SM FEW009 OVC034 02/00 A3009 RMK AO2 SLP189 T00220000

KMCO 181653Z VRB03KT 10SM FEW055 FEW300 21/00 A3017 RMK AO2 SLP216 T02110000

KMDW 181653Z 01005KT 10SM OVC023 M01/M06 A3018 RMK AO2 SLP231 T10061056

KMEM 181654Z 09005KT 6SM BR OVC005 08/07 A3013 RMK AO2 SLP202 T00830072

KMIA 181653Z VRB03KT 10SM FEW030 FEW250 24/14 A3016 RMK AO2 SLP214 T02440139

KMSP 181653Z 01007KT 10SM OVC055 M12/M21 A3031 RMK AO2 SLP283 T11221206

KORD 181651Z 35006KT 10SM OVC021 M02/M07 A3018 RMK AO2 SLP228 T10221067

KPDX 181653Z 12009KT 10SM SCT038 BKN070 OVC200 06/04 A3017 RMK AO2 SLP214 T00610039

KPHL 181654Z 00000KT 4SM BR OVC006 02/00 A3011 RMK AO2 SLP196 T00170000

KPHX 181651Z 00000KT 10SM FEW070 BKN250 16/09 A3013 RMK AO2 SLP194 T01560094

KPIT 181651Z 27007KT 7SM BKN009 OVC016 01/M01 A3008 RMK AO2 SLP206 T00061006

KSAN 181708Z 00000KT 7SM FEW009 BKN022 BKN040 BKN140 17/13 A3029 RMK AO2 T01670133

KSEA 181653Z 18010KT 10SM SCT038 OVC220 08/03 A3011 RMK AO2 SLP203 T00830033

KSFO 181656Z 08003KT 10SM OVC065 14/09 A3032 RMK AO2 SLP266 T01390089

KSLC 181654Z 32006KT 10SM BKN037 BKN043 BKN060 03/M01 A3021 RMK AO2 SNB21E36 SLP235 VIRGA VCSH P0000 T00281011

KSTL 181651Z 13006KT 4SM BR OVC006 02/01 A3014 RMK AO2 SLP217 T00220006

KTPA 181653Z 24004KT 10SM SCT250 20/04 A3018 RMK AO2 SLP220 T02000044